• Join FlightAware (Why Join?)
  • Login
  • US Flag 
04:31AM EDT


 

Airport Tracker/Info


-or-


 

Live Flight TrackerFlight Track Log ✈ EJA922 ✈ 29-Aug-2013 ✈ KORD - KLUK

Flight Track Log - Related Links

Times and Time Zones

All times are in EDT time to prevent confusion due to time zone crossing. See the EJA922 flight status page for this flight to view local times or setup timezone preferences in your user account.

Time Position Orientation Groundspeed Altitude Reporting Facility
EDT Latitude Longitude Course Direction KTS MPH feet Rate Location/Type
04:05PM 41.9167 -87.8833 90° East 209 241 3,500  Level Chicago TRACON
04:06PM 41.8767 -87.7356 110° East 255 293 5,000 480 Climbing Chicago Center
04:07PM 41.8878 -87.6419 81° East 255 293 5,000 900 Level Chicago Center
04:08PM 41.8972 -87.5433 83° East 262 302 6,900 2,340 Climbing Chicago Center
04:09PM 41.9081 -87.4378 82° East 284 327 9,900 2,700 Climbing Chicago Center
04:10PM 41.9333 -87.0624 90° East  Level FlightAware Approximate
04:10PM 41.9183 -87.3281 83° East 297 342 12,500  Level Chicago Center
04:12PM 41.9214 -87.1669 88° East 368 423 14,300 1,860 Climbing Chicago Center
04:13PM 41.9064 -87.0197 98° East 396 456 16,400 1,800 Climbing Chicago Center
04:14PM 41.8925 -86.8694 97° East 407 468 18,100 1,560 Climbing Chicago Center
04:15PM 41.8761 -86.7164 98° East 416 479 19,700 1,500 Climbing Chicago Center
04:16PM 41.8597 -86.5622 98° East 425 489 21,300 1,380 Climbing Chicago Center
04:17PM 41.8400 -86.3669 98° East 440 506 22,600 780 Climbing Chicago Center
04:18PM 41.8217 -86.1986 98° East 450 518 23,000 180 Climbing Chicago Center
04:19PM 41.8028 -86.0211 98° East 473 544 23,000  Level Chicago Center
04:20PM 41.7614 -85.8525 108° East 484 557 23,000  Level Chicago Center
04:21PM 41.6594 -85.7367 140° Southeast 486 559 23,000  Level Chicago Center
04:22PM 41.5547 -85.5781 131° Southeast 486 559 23,000 -60 Level Chicago Center
04:23PM 41.4611 -85.4544 135° Southeast 487 560 22,900 -720 Descending Chicago Center
04:24PM 41.3536 -85.3544 145° Southeast 479 551 21,600 -960 Descending Chicago Center
04:25PM 41.2464 -85.2564 145° Southeast 474 545 21,000 -300 Descending Chicago Center
04:26PM 41.1394 -85.1583 145° Southeast 471 542 21,000  Level Chicago Center
04:27PM 41.0114 -85.0422 146° Southeast 466 536 21,000  Level Chicago Center
04:28PM 40.9047 -84.9442 145° Southeast 467 537 21,000  Level Chicago Center
04:29PM 40.7975 -84.8467 145° Southeast 468 539 21,000  Level Chicago Center
04:30PM 40.7050 -84.7286 136° Southeast 472 543 21,000  Level Chicago Center
04:31PM 40.6247 -84.5950 128° Southeast 467 537 21,000  Level Chicago Center
04:32PM 40.5642 -84.4964 129° Southeast 459 528 21,000 -780 Level Indianapolis Center
04:33PM 40.4667 -84.3353 128° Southeast 467 537 19,700 -1,740 Descending Indianapolis Center
04:33PM 40.4214 -84.2647 130° Southeast 469 540 18,300 -2,460 Descending Indianapolis Center
04:34PM 40.3850 -84.1992 126° Southeast 464 534 17,200 -1,800 Descending Indianapolis Center
04:34PM 40.3500 -84.1447 130° Southeast 460 529 16,500 -2,340 Descending Indianapolis Center
04:35PM 40.3061 -84.0753 130° Southeast 448 516 14,800 -2,520 Descending Indianapolis Center
04:36PM 40.2022 -84.0108 155° Southeast 421 484 12,600 -1,860 Descending Indianapolis Center
04:37PM 40.0936 -83.9706 164° South 409 471 11,000 -780 Descending Indianapolis Center
04:38PM 39.9842 -83.9303 164° South 410 472 11,000 -480 Level Indianapolis Center
04:39PM 39.8569 -83.8847 165° South 401 461 10,000 -660 Descending Indianapolis Center
04:40PM 39.7625 -83.8506 164° South 364 419 9,700 -1,020 Descending Indianapolis Center
04:41PM 39.6850 -83.8222 164° South 302 348 8,000 -1,080 Descending Indianapolis Center
04:42PM 39.6100 -83.8433 192° South 294 338 7,500 -1,080 Descending Indianapolis Center
04:43PM 39.5592 -83.9203 229° Southwest 285 328 5,800 -1,260 Descending Indianapolis Center
04:44PM 39.4986 -84.0089 228° Southwest 279 321 5,000 -420 Descending Indianapolis Center
04:45PM 39.4536 -84.0733 228° Southwest 257 296 5,000  Level Indianapolis Center
04:46PM 39.4103 -84.1342 227° Southwest 237 273 5,000  Level Indianapolis Center
04:47PM 39.3508 -84.1672 203° Southwest 232 267 5,000  Level Indianapolis Center
04:48PM 39.2933 -84.2031 206° Southwest 231 266 5,000 -360 Level Indianapolis Center
04:50PM 39.2342 -84.2400 206° Southwest 232 267 4,300 -720 Descending Indianapolis Center
04:51PM 39.1694 -84.2792 205° Southwest 224 258 3,600 -660 Descending Indianapolis Center
04:52PM 39.1211 -84.3086 205° Southwest 218 251 3,000 -600 Descending Indianapolis Center
04:53PM 39.0333 -84.3833 213° Southwest 191 220 2,100 -480 Descending Cincinnati TRACON
04:54PM 39.0500 -84.4333 293° West 147 169 1,700 -420 Descending Cincinnati TRACON
04:56PM 39.1000 -84.4167 195° South  Level FlightAware Approximate